Time;durP1;ratioP1;P1;durP2;ratioP2;P2;SDS_P1;SDS_P2;PMS_P1;PMS_P2;Temp;Humidity;BMP_temperature;BMP_pressure;BME280_temperature;BME280_humidity;BME280_pressure;Samples;Min_cycle;Max_cycle;Signal;HPM_P1;HPM_P2
2023/12/06 00:00:27;;;;;;;7.50;4.20;;;20.30;99.90;;;;;;4954949;29;20027;-53
2023/12/06 00:02:53;;;;;;;7.88;3.80;;;20.30;99.90;;;;;;4954897;28;20051;-53
2023/12/06 00:05:19;;;;;;;6.82;4.32;;;20.30;99.90;;;;;;4954606;29;20020;-53
2023/12/06 00:07:44;;;;;;;6.15;4.10;;;20.30;99.90;;;;;;4954765;28;20484;-52
2023/12/06 00:10:10;;;;;;;6.68;3.72;;;20.30;99.90;;;;;;4954729;29;20476;-53
2023/12/06 00:12:36;;;;;;;6.75;3.55;;;20.30;99.90;;;;;;4954587;28;20038;-53
2023/12/06 00:15:02;;;;;;;7.07;3.72;;;20.30;99.90;;;;;;4954637;29;20098;-52
2023/12/06 00:17:28;;;;;;;5.47;3.38;;;20.30;99.90;;;;;;4954156;28;20035;-53
2023/12/06 00:19:53;;;;;;;5.22;3.75;;;20.30;99.90;;;;;;4954788;28;20111;-53
2023/12/06 00:22:19;;;;;;;5.63;3.92;;;20.30;99.90;;;;;;4954415;29;20093;-53
2023/12/06 00:24:45;;;;;;;5.47;3.65;;;20.30;99.90;;;;;;4954498;28;20019;-52
2023/12/06 00:27:11;;;;;;;5.82;3.60;;;20.30;99.90;;;;;;4953238;28;20035;-53
2023/12/06 00:29:37;;;;;;;5.55;3.20;;;20.30;99.90;;;;;;4969446;28;20025;-52
2023/12/06 00:32:03;;;;;;;5.70;3.72;;;20.30;99.90;;;;;;4953134;28;20086;-52
2023/12/06 00:34:29;;;;;;;4.90;3.25;;;20.30;99.90;;;;;;4954443;28;20027;-52
2023/12/06 00:36:54;;;;;;;7.35;3.75;;;20.30;99.90;;;;;;4954682;29;20029;-52
2023/12/06 00:39:20;;;;;;;6.40;3.45;;;20.30;99.90;;;;;;4953143;29;20023;-52
2023/12/06 00:41:46;;;;;;;8.50;3.33;;;20.30;99.90;;;;;;4962965;28;20333;-52
2023/12/06 00:44:12;;;;;;;5.50;3.45;;;20.30;99.90;;;;;;4953464;29;20030;-53
2023/12/06 00:46:37;;;;;;;6.07;3.88;;;20.30;99.90;;;;;;4952312;28;20028;-52
2023/12/06 00:49:03;;;;;;;5.07;3.45;;;20.30;99.90;;;;;;4962438;28;20030;-53
2023/12/06 00:51:29;;;;;;;5.68;3.22;;;20.30;99.90;;;;;;4953866;28;20046;-52
2023/12/06 00:53:55;;;;;;;5.45;3.20;;;20.20;99.90;;;;;;4954156;28;20031;-52
2023/12/06 00:56:21;;;;;;;4.40;2.63;;;20.20;99.90;;;;;;4953976;28;20476;-52
2023/12/06 00:58:47;;;;;;;4.55;3.15;;;20.30;99.90;;;;;;4953298;28;20114;-53
2023/12/06 01:01:13;;;;;;;4.25;2.88;;;20.20;99.90;;;;;;4983679;23;20509;-50
2023/12/06 01:03:40;;;;;;;5.70;3.17;;;20.20;99.90;;;;;;4991160;28;20046;-47
2023/12/06 01:06:06;;;;;;;;;;;20.30;99.90;;;;;;4993249;28;20031;-49
2023/12/06 01:08:32;;;;;;;4.85;3.67;;;20.20;99.90;;;;;;4991390;28;19909;-50
2023/12/06 01:10:58;;;;;;;4.18;3.10;;;20.20;99.90;;;;;;4992055;28;20050;-48
2023/12/06 01:13:24;;;;;;;5.25;3.17;;;20.30;99.90;;;;;;4992729;28;20049;-50
2023/12/06 01:15:50;;;;;;;5.47;3.20;;;20.20;99.90;;;;;;4992564;28;20057;-48
2023/12/06 01:18:16;;;;;;;4.72;2.88;;;20.20;99.90;;;;;;4992675;28;20026;-48
2023/12/06 01:20:42;;;;;;;4.97;3.20;;;20.30;99.90;;;;;;4992599;28;20027;-49
2023/12/06 01:23:08;;;;;;;5.00;3.22;;;20.20;99.90;;;;;;4992603;28;20034;-50
2023/12/06 01:25:34;;;;;;;3.45;2.72;;;20.20;99.90;;;;;;4992542;28;20069;-48
2023/12/06 01:28:00;;;;;;;6.95;2.90;;;20.20;99.90;;;;;;4992619;28;20058;-50
2023/12/06 01:30:26;;;;;;;5.25;3.33;;;20.20;99.90;;;;;;4994531;28;20050;-50
2023/12/06 01:32:52;;;;;;;4.97;3.30;;;20.20;99.90;;;;;;4996390;28;20038;-49
2023/12/06 01:35:18;;;;;;;5.18;2.92;;;20.20;99.90;;;;;;4996381;28;20104;-49
2023/12/06 01:37:43;;;;;;;3.92;2.63;;;20.20;99.90;;;;;;4996339;28;20037;-48
2023/12/06 01:40:10;;;;;;;4.90;2.88;;;20.20;99.90;;;;;;4996198;28;20023;-50
2023/12/06 01:42:36;;;;;;;4.38;2.78;;;20.20;99.90;;;;;;4996199;28;20495;-48
2023/12/06 01:45:02;;;;;;;4.35;3.08;;;20.20;99.90;;;;;;4996203;28;20029;-48
2023/12/06 01:47:30;;;;;;;4.07;2.65;;;20.20;99.90;;;;;;4996339;28;20386;-47
2023/12/06 01:50:01;;;;;;;4.55;2.75;;;20.20;99.90;;;;;;4995970;28;20026;-48
2023/12/06 01:52:27;;;;;;;3.67;2.70;;;20.20;99.90;;;;;;4996247;28;20074;-48
2023/12/06 01:54:58;;;;;;;5.45;3.53;;;20.20;99.90;;;;;;4994598;28;20561;-48
2023/12/06 01:57:25;;;;;;;4.82;2.90;;;20.20;99.90;;;;;;4995820;28;20031;-48
2023/12/06 01:59:55;;;;;;;4.60;2.80;;;20.20;99.90;;;;;;4995856;28;20106;-48
2023/12/06 02:02:21;;;;;;;4.50;2.72;;;20.20;99.90;;;;;;4995689;28;20132;-49
2023/12/06 02:04:47;;;;;;;4.15;2.60;;;20.20;99.90;;;;;;4996061;28;20106;-49
2023/12/06 02:07:15;;;;;;;3.97;2.30;;;20.10;99.90;;;;;;4995808;28;20053;-48
2023/12/06 02:09:40;;;;;;;;;;;20.10;99.90;;;;;;4996277;28;20034;-48
2023/12/06 02:12:06;;;;;;;3.50;2.38;;;20.20;99.90;;;;;;4995586;28;19936;-49
2023/12/06 02:14:34;;;;;;;4.28;2.70;;;20.20;99.90;;;;;;4995599;28;20042;-49
2023/12/06 02:17:04;;;;;;;3.70;2.20;;;20.10;99.90;;;;;;4995564;28;20035;-49
2023/12/06 02:19:31;;;;;;;4.40;2.63;;;20.10;99.90;;;;;;4995602;28;20030;-49
2023/12/06 02:21:58;;;;;;;4.95;2.72;;;20.10;99.90;;;;;;4995529;28;20027;-49
2023/12/06 02:24:30;;;;;;;4.10;2.25;;;20.10;99.90;;;;;;4995629;28;20030;-50
2023/12/06 02:26:56;;;;;;;5.35;2.58;;;20.10;99.90;;;;;;4995399;28;20482;-48
2023/12/06 02:29:24;;;;;;;3.65;2.72;;;20.10;99.90;;;;;;4995428;28;20061;-49
2023/12/06 02:31:50;;;;;;;3.88;2.35;;;20.10;99.90;;;;;;5010542;28;20031;-49
2023/12/06 02:34:19;;;;;;;4.95;2.25;;;20.10;99.90;;;;;;4995381;28;20038;-49
2023/12/06 02:36:48;;;;;;;4.50;2.20;;;20.20;99.90;;;;;;4995277;28;20049;-49
2023/12/06 02:39:16;;;;;;;4.30;2.33;;;20.20;99.90;;;;;;4983791;28;20491;-48
2023/12/06 02:41:42;;;;;;;3.97;2.70;;;20.20;99.90;;;;;;4976884;28;20073;-48
2023/12/06 02:44:07;;;;;;;5.13;2.92;;;20.10;99.90;;;;;;4981255;28;20077;-49
2023/12/06 02:46:35;;;;;;;5.45;2.35;;;20.10;99.90;;;;;;4995015;28;20535;-49
2023/12/06 02:49:01;;;;;;;8.25;2.85;;;20.10;99.90;;;;;;4982348;28;20030;-49
2023/12/06 02:51:27;;;;;;;7.25;2.65;;;20.10;99.90;;;;;;4988301;28;20034;-48
2023/12/06 02:53:53;;;;;;;4.35;3.00;;;20.10;99.90;;;;;;4986991;28;20087;-50
2023/12/06 02:56:19;;;;;;;4.93;2.53;;;20.10;99.90;;;;;;4991526;28;20487;-48
2023/12/06 02:58:44;;;;;;;6.95;2.67;;;20.20;99.90;;;;;;4985489;28;20031;-48
2023/12/06 03:01:10;;;;;;;3.92;2.45;;;20.20;99.90;;;;;;4974802;28;20115;-48
2023/12/06 03:03:36;;;;;;;4.53;2.55;;;20.10;99.90;;;;;;4982425;28;20030;-48
2023/12/06 03:06:02;;;;;;;4.68;2.30;;;20.10;99.90;;;;;;4994402;28;20034;-48
2023/12/06 03:08:27;;;;;;;3.67;2.53;;;20.10;99.90;;;;;;4978993;28;20035;-48
2023/12/06 03:10:53;;;;;;;6.10;2.47;;;20.10;99.90;;;;;;4974623;28;20440;-49
2023/12/06 03:13:19;;;;;;;5.00;1.95;;;20.20;99.90;;;;;;4978406;28;20392;-48
2023/12/06 03:15:45;;;;;;;4.45;2.85;;;20.20;99.90;;;;;;4994019;28;20100;-48
2023/12/06 03:18:10;;;;;;;3.47;1.83;;;20.20;99.90;;;;;;4990326;28;20103;-49
2023/12/06 03:20:36;;;;;;;4.35;2.30;;;20.20;99.90;;;;;;4981471;28;20033;-49
2023/12/06 03:23:02;;;;;;;5.18;1.83;;;20.20;99.90;;;;;;4993672;28;20027;-49
2023/12/06 03:25:28;;;;;;;3.17;2.10;;;20.20;99.90;;;;;;4992812;28;20023;-49
2023/12/06 03:27:54;;;;;;;5.28;1.98;;;20.20;99.90;;;;;;4994211;28;20029;-49
2023/12/06 03:30:20;;;;;;;5.22;2.17;;;20.20;99.90;;;;;;4993919;28;20018;-49
2023/12/06 03:32:46;;;;;;;2.92;2.13;;;20.20;99.90;;;;;;4994008;28;20084;-49
2023/12/06 03:35:12;;;;;;;7.22;2.00;;;20.20;99.90;;;;;;4994009;28;20039;-50
2023/12/06 03:37:37;;;;;;;4.00;2.25;;;20.20;99.90;;;;;;4993994;28;20479;-49
2023/12/06 03:40:04;;;;;;;4.60;1.92;;;20.20;99.90;;;;;;4994101;28;20026;-49
2023/12/06 03:42:30;;;;;;;3.85;2.10;;;20.20;99.90;;;;;;4993875;28;20054;-49
2023/12/06 03:44:55;;;;;;;2.55;1.92;;;20.20;99.90;;;;;;4993901;28;20472;-49
2023/12/06 03:47:21;;;;;;;3.33;2.15;;;20.20;99.90;;;;;;4994111;28;20034;-50
2023/12/06 03:49:47;;;;;;;4.57;2.35;;;20.20;99.90;;;;;;4993786;28;20383;-49
2023/12/06 03:52:13;;;;;;;3.38;2.20;;;20.20;99.90;;;;;;4993329;28;20074;-49
2023/12/06 03:54:38;;;;;;;5.55;1.98;;;20.20;99.90;;;;;;4993627;28;20033;-49
2023/12/06 03:57:04;;;;;;;3.50;1.85;;;20.20;99.90;;;;;;4993633;28;20038;-49
2023/12/06 03:59:30;;;;;;;4.53;2.90;;;20.20;99.90;;;;;;4992402;28;20541;-48
2023/12/06 04:01:56;;;;;;;4.63;2.20;;;20.20;99.90;;;;;;4992577;28;20053;-48
2023/12/06 04:04:22;;;;;;;5.05;2.08;;;20.20;99.90;;;;;;4993797;28;20050;-49
2023/12/06 04:06:47;;;;;;;3.58;1.60;;;20.10;99.90;;;;;;4993647;28;20454;-49
2023/12/06 04:09:13;;;;;;;4.22;1.92;;;20.20;99.90;;;;;;4993556;28;20030;-49
2023/12/06 04:11:39;;;;;;;6.63;2.53;;;20.20;99.90;;;;;;4993292;28;20081;-49
2023/12/06 04:14:07;;;;;;;3.80;2.08;;;20.10;99.90;;;;;;4993382;28;20348;-49
2023/12/06 04:16:36;;;;;;;4.57;2.05;;;20.10;99.90;;;;;;4993331;28;20023;-48
2023/12/06 04:19:02;;;;;;;5.90;2.00;;;20.10;99.90;;;;;;4993345;28;20076;-49
2023/12/06 04:21:28;;;;;;;6.03;2.17;;;20.10;99.90;;;;;;4993263;28;20382;-49
2023/12/06 04:23:54;;;;;;;4.38;2.13;;;20.10;99.90;;;;;;4993467;28;20453;-49
2023/12/06 04:26:21;;;;;;;5.15;2.00;;;20.10;99.90;;;;;;4993164;28;20118;-49
2023/12/06 04:28:47;;;;;;;3.45;2.35;;;20.10;99.90;;;;;;4993263;28;20517;-48
2023/12/06 04:31:13;;;;;;;5.55;2.10;;;20.10;99.90;;;;;;4993091;28;20023;-49
2023/12/06 04:33:40;;;;;;;4.20;2.20;;;20.10;99.90;;;;;;4993043;28;20037;-48
2023/12/06 04:36:06;;;;;;;5.78;1.90;;;20.10;99.90;;;;;;4993184;28;20073;-49
2023/12/06 04:38:32;;;;;;;4.65;1.90;;;20.10;99.90;;;;;;4992942;28;20033;-49
2023/12/06 04:40:58;;;;;;;3.75;2.00;;;20.10;99.90;;;;;;4993193;28;20026;-49
2023/12/06 04:43:24;;;;;;;4.75;2.95;;;20.10;99.90;;;;;;4992055;28;20072;-49
2023/12/06 04:45:50;;;;;;;8.55;2.05;;;20.10;99.90;;;;;;4993109;28;20442;-49
2023/12/06 04:48:16;;;;;;;3.53;1.92;;;20.10;99.90;;;;;;4992912;28;20533;-50
2023/12/06 04:50:41;;;;;;;5.72;2.38;;;20.10;99.90;;;;;;4992994;28;20030;-48
2023/12/06 04:53:07;;;;;;;4.18;2.03;;;20.10;99.90;;;;;;4992774;28;20042;-49
2023/12/06 04:55:33;;;;;;;4.82;2.28;;;20.10;99.90;;;;;;4993112;28;20054;-49
2023/12/06 04:57:59;;;;;;;3.45;2.15;;;20.10;99.90;;;;;;4993010;28;20501;-48
2023/12/06 05:00:27;;;;;;;4.63;1.75;;;20.10;99.90;;;;;;4992947;28;20033;-48
2023/12/06 05:02:53;;;;;;;5.63;2.30;;;20.10;99.90;;;;;;4992938;28;20365;-49
2023/12/06 05:05:19;;;;;;;3.05;1.73;;;20.10;99.90;;;;;;4994899;28;20042;-48
2023/12/06 05:07:44;;;;;;;4.22;2.10;;;20.10;99.90;;;;;;4996780;28;20113;-48
2023/12/06 05:10:10;;;;;;;3.95;2.00;;;20.10;99.90;;;;;;4996704;28;20105;-49
2023/12/06 05:12:36;;;;;;;3.55;1.70;;;20.10;99.90;;;;;;4996671;28;20048;-48
2023/12/06 05:15:03;;;;;;;3.47;1.80;;;20.10;99.90;;;;;;4996733;28;20022;-48
2023/12/06 05:17:29;;;;;;;2.55;2.08;;;20.10;99.90;;;;;;4996655;28;20034;-49
2023/12/06 05:19:55;;;;;;;5.68;2.10;;;20.10;99.90;;;;;;4996985;28;20018;-49
2023/12/06 05:22:21;;;;;;;4.13;2.05;;;20.10;99.90;;;;;;4996465;28;20042;-48
2023/12/06 05:24:47;;;;;;;3.50;1.88;;;20.00;99.90;;;;;;4996525;28;20026;-48
2023/12/06 05:27:12;;;;;;;3.22;2.15;;;20.00;99.90;;;;;;4996513;28;20471;-48
2023/12/06 05:29:38;;;;;;;5.15;1.95;;;20.00;99.90;;;;;;4996394;28;20022;-50
2023/12/06 05:32:04;;;;;;;3.83;1.92;;;20.00;99.90;;;;;;4996500;28;20040;-49
2023/12/06 05:34:30;;;;;;;4.22;1.90;;;20.00;99.90;;;;;;4996345;28;20384;-49
2023/12/06 05:36:57;;;;;;;3.53;1.85;;;20.00;99.90;;;;;;4996410;28;20026;-49
2023/12/06 05:39:23;;;;;;;4.82;1.90;;;20.00;99.90;;;;;;4996328;28;20356;-49
2023/12/06 05:41:49;;;;;;;5.50;2.40;;;20.00;99.90;;;;;;4996164;28;20073;-49
2023/12/06 05:44:14;;;;;;;2.33;1.75;;;20.00;99.90;;;;;;4996313;28;20135;-48
2023/12/06 05:46:40;;;;;;;2.53;1.70;;;20.00;99.90;;;;;;4996161;28;20019;-48
2023/12/06 05:49:06;;;;;;;3.80;2.05;;;20.00;99.90;;;;;;4996180;28;20394;-48
2023/12/06 05:51:32;;;;;;;4.10;1.85;;;20.00;99.90;;;;;;4995892;28;20042;-48
2023/12/06 05:53:57;;;;;;;2.60;1.77;;;20.00;99.90;;;;;;4996201;28;20022;-48
2023/12/06 05:56:23;;;;;;;3.10;1.85;;;20.00;99.90;;;;;;4996044;28;20105;-48
2023/12/06 05:58:50;;;;;;;3.28;1.60;;;20.00;99.90;;;;;;4996018;28;20022;-48
2023/12/06 06:01:15;;;;;;;3.40;1.88;;;20.00;99.90;;;;;;4995220;28;20137;-48
2023/12/06 06:03:41;;;;;;;6.35;2.17;;;20.00;99.90;;;;;;4995890;28;20610;-48
2023/12/06 06:06:08;;;;;;;2.80;1.95;;;20.00;99.90;;;;;;4995827;28;20030;-48
2023/12/06 06:08:37;;;;;;;3.35;1.80;;;20.00;99.90;;;;;;4995859;28;20026;-49
2023/12/06 06:11:04;;;;;;;2.63;1.60;;;20.00;99.90;;;;;;4993592;28;20102;-48
2023/12/06 06:13:30;;;;;;;2.50;1.88;;;20.00;99.90;;;;;;4995870;28;20092;-48
2023/12/06 06:15:57;;;;;;;5.38;1.90;;;19.90;99.90;;;;;;4995060;28;20471;-49
2023/12/06 06:18:23;;;;;;;2.30;1.40;;;20.00;99.90;;;;;;4995591;28;20033;-49
2023/12/06 06:20:49;;;;;;;2.33;1.85;;;19.90;99.90;;;;;;4995601;28;20028;-49
2023/12/06 06:23:15;;;;;;;2.30;1.70;;;20.00;99.90;;;;;;4995582;28;20101;-48
2023/12/06 06:25:40;;;;;;;2.88;1.70;;;19.90;99.90;;;;;;4995429;28;20026;-48
2023/12/06 06:28:06;;;;;;;4.82;1.67;;;19.90;99.90;;;;;;4995432;28;20102;-48
2023/12/06 06:30:32;;;;;;;2.65;1.77;;;19.90;99.90;;;;;;4995650;28;20023;-48
2023/12/06 06:32:58;;;;;;;2.28;1.50;;;19.90;99.90;;;;;;4995374;28;20100;-48
2023/12/06 06:35:24;;;;;;;3.53;1.98;;;19.90;99.90;;;;;;4995289;28;20022;-48
2023/12/06 06:37:50;;;;;;;2.80;1.58;;;19.90;99.90;;;;;;4995332;28;20030;-48
2023/12/06 06:40:16;;;;;;;2.83;1.52;;;19.90;99.90;;;;;;4995227;28;20046;-48
2023/12/06 06:42:42;;;;;;;4.22;1.65;;;19.90;99.90;;;;;;4995172;28;20027;-48
2023/12/06 06:45:09;;;;;;;2.33;1.55;;;19.90;99.90;;;;;;4994981;28;20027;-48
2023/12/06 06:47:36;;;;;;;4.28;1.30;;;19.90;99.90;;;;;;4995135;28;20464;-48
2023/12/06 06:50:04;;;;;;;3.10;1.55;;;19.90;99.90;;;;;;4995250;28;20023;-49
2023/12/06 06:52:32;;;;;;;2.17;1.40;;;19.90;99.90;;;;;;4995098;28;20491;-48
2023/12/06 06:54:58;;;;;;;2.03;1.40;;;19.90;99.90;;;;;;4994850;28;20026;-48
2023/12/06 06:57:23;;;;;;;3.28;1.60;;;19.90;99.90;;;;;;4994782;28;20026;-49
2023/12/06 06:59:49;;;;;;;2.83;1.88;;;19.90;99.90;;;;;;4994873;28;20029;-49
2023/12/06 07:02:16;;;;;;;4.30;1.92;;;19.90;99.90;;;;;;4994499;28;20423;-49
2023/12/06 07:04:43;;;;;;;4.10;1.70;;;19.90;99.90;;;;;;4994739;28;20049;-49
2023/12/06 07:07:09;;;;;;;2.92;1.60;;;19.90;99.90;;;;;;4994697;28;20069;-49
2023/12/06 07:09:35;;;;;;;3.67;1.58;;;19.90;99.90;;;;;;4993416;28;20034;-49
2023/12/06 07:12:00;;;;;;;2.75;2.00;;;19.90;99.90;;;;;;4994778;28;20030;-49
2023/12/06 07:14:26;;;;;;;3.00;1.63;;;19.90;99.90;;;;;;4994566;28;20073;-49
2023/12/06 07:16:54;;;;;;;2.08;1.30;;;19.90;99.90;;;;;;4993156;28;20310;-49
2023/12/06 07:19:21;;;;;;;3.47;2.15;;;19.90;99.90;;;;;;4994303;28;20481;-49
2023/12/06 07:21:46;;;;;;;3.00;2.00;;;19.90;99.90;;;;;;4994415;28;20056;-49
2023/12/06 07:24:12;;;;;;;3.17;1.85;;;19.90;99.90;;;;;;4994484;28;20058;-49
2023/12/06 07:26:39;;;;;;;2.97;1.67;;;19.90;99.90;;;;;;4994253;28;20027;-49
2023/12/06 07:29:05;;;;;;;2.42;1.83;;;19.90;99.90;;;;;;4993636;28;20030;-48
2023/12/06 07:31:31;;;;;;;4.22;1.80;;;19.90;99.90;;;;;;4994285;28;20026;-49
2023/12/06 07:33:57;;;;;;;2.90;2.03;;;19.90;99.90;;;;;;4994205;28;20029;-49
2023/12/06 07:36:23;;;;;;;2.78;1.70;;;19.90;99.90;;;;;;4994126;28;20022;-49
2023/12/06 07:38:49;;;;;;;2.97;1.70;;;19.90;99.90;;;;;;4994270;28;20039;-49
2023/12/06 07:41:15;;;;;;;3.28;1.58;;;19.90;99.90;;;;;;4994142;28;20093;-49
2023/12/06 07:43:41;;;;;;;2.38;1.60;;;19.90;99.90;;;;;;4994026;28;20085;-49
2023/12/06 07:46:07;;;;;;;2.10;1.48;;;19.90;99.90;;;;;;4994004;28;20019;-49
2023/12/06 07:48:35;;;;;;;3.40;1.60;;;19.90;99.90;;;;;;4994129;28;20477;-49
2023/12/06 07:51:01;;;;;;;5.47;2.13;;;19.90;99.90;;;;;;4993791;28;20022;-49
2023/12/06 07:53:27;;;;;;;3.33;1.60;;;19.90;99.90;;;;;;4993674;28;20092;-49
2023/12/06 07:55:58;;;;;;;2.08;1.45;;;19.90;99.90;;;;;;4993801;28;20034;-49
2023/12/06 07:58:24;;;;;;;3.42;1.50;;;19.90;99.90;;;;;;4994049;28;20442;-49
2023/12/06 08:00:51;;;;;;;4.38;1.77;;;19.90;99.90;;;;;;4994060;28;20097;-49
2023/12/06 08:03:18;;;;;;;;;;;19.90;99.90;;;;;;4994243;28;20124;-49
2023/12/06 08:05:44;;;;;;;3.50;1.52;;;19.90;99.90;;;;;;4993632;28;19906;-49
2023/12/06 08:08:09;;;;;;;3.30;1.50;;;19.90;99.90;;;;;;4993658;28;20390;-49
2023/12/06 08:10:35;;;;;;;2.63;1.88;;;19.90;99.90;;;;;;4993846;28;20034;-49
2023/12/06 08:13:01;;;;;;;3.70;2.22;;;19.90;99.90;;;;;;4975978;28;20108;-49
2023/12/06 08:15:28;;;;;;;2.42;1.65;;;19.90;99.90;;;;;;4993304;28;20024;-49
2023/12/06 08:17:55;;;;;;;3.28;1.40;;;19.90;99.90;;;;;;4993442;28;20026;-49
2023/12/06 08:20:21;;;;;;;4.22;2.10;;;19.90;99.90;;;;;;4993409;28;20475;-49
2023/12/06 08:22:47;;;;;;;5.53;2.03;;;19.90;99.90;;;;;;4993430;28;20042;-49
2023/12/06 08:25:13;;;;;;;2.35;1.77;;;19.90;99.90;;;;;;4992180;28;20446;-49
2023/12/06 08:27:39;;;;;;;3.03;1.67;;;19.90;99.90;;;;;;4993202;28;20418;-49
2023/12/06 08:30:08;;;;;;;4.57;2.25;;;19.90;99.90;;;;;;4993364;28;20391;-49
2023/12/06 08:32:34;;;;;;;5.88;1.85;;;19.90;99.90;;;;;;4993397;28;20103;-49
2023/12/06 08:35:02;;;;;;;3.85;1.80;;;19.90;99.90;;;;;;4993155;28;20475;-48
2023/12/06 08:37:28;;;;;;;2.85;1.83;;;19.90;99.90;;;;;;4993123;28;20113;-49
2023/12/06 08:39:54;;;;;;;2.58;1.88;;;19.90;99.90;;;;;;4992831;28;20497;-48
2023/12/06 08:42:20;;;;;;;3.95;1.90;;;19.90;99.90;;;;;;4993054;28;20394;-49
2023/12/06 08:44:46;;;;;;;3.78;2.20;;;19.90;99.90;;;;;;4991599;28;20036;-49
2023/12/06 08:47:12;;;;;;;3.53;2.03;;;19.90;99.90;;;;;;4991659;28;20379;-49
2023/12/06 08:49:39;;;;;;;2.47;1.90;;;19.90;99.90;;;;;;4993162;28;20022;-49
2023/12/06 08:52:06;;;;;;;2.25;1.73;;;19.90;99.90;;;;;;4992891;28;20088;-49
2023/12/06 08:54:35;;;;;;;6.38;1.98;;;19.90;99.90;;;;;;4992913;28;20395;-48
2023/12/06 08:57:01;;;;;;;4.07;1.92;;;19.90;99.90;;;;;;4992793;28;20034;-49
2023/12/06 08:59:27;;;;;;;3.33;2.28;;;19.90;99.90;;;;;;4992770;28;20065;-49
2023/12/06 09:01:53;;;;;;;4.13;2.30;;;19.90;99.90;;;;;;4992594;28;20078;-49
2023/12/06 09:04:20;;;;;;;2.92;2.17;;;19.90;99.90;;;;;;4992798;28;20041;-49
2023/12/06 09:06:46;;;;;;;2.90;2.30;;;19.90;99.90;;;;;;4992702;28;20510;-50
2023/12/06 09:09:12;;;;;;;2.38;1.90;;;19.90;99.90;;;;;;4992795;28;20030;-49
2023/12/06 09:11:37;;;;;;;3.42;1.85;;;19.90;99.90;;;;;;4992895;28;20052;-49
2023/12/06 09:14:03;;;;;;;2.63;1.92;;;19.90;99.90;;;;;;4992547;28;20497;-48
2023/12/06 09:16:29;;;;;;;2.90;1.75;;;19.90;99.90;;;;;;4992500;28;20029;-49
2023/12/06 09:18:55;;;;;;;3.80;2.53;;;19.90;99.90;;;;;;4992652;28;20022;-49
2023/12/06 09:21:26;;;;;;;4.70;2.40;;;19.90;99.90;;;;;;4992561;28;20351;-49
2023/12/06 09:23:52;;;;;;;3.15;2.22;;;19.90;99.90;;;;;;4992581;28;20027;-49
2023/12/06 09:26:19;;;;;;;6.25;2.20;;;19.90;99.90;;;;;;4992603;28;20495;-49
2023/12/06 09:28:45;;;;;;;2.08;1.77;;;19.90;99.90;;;;;;4992544;28;20375;-49
2023/12/06 09:31:11;;;;;;;3.67;2.55;;;19.90;99.90;;;;;;4992574;28;20022;-49
2023/12/06 09:33:36;;;;;;;2.70;2.13;;;19.90;99.90;;;;;;4992371;28;20046;-49
2023/12/06 09:36:03;;;;;;;2.25;1.80;;;19.90;99.90;;;;;;4992488;28;20031;-48
2023/12/06 09:38:29;;;;;;;3.10;2.20;;;19.90;99.90;;;;;;4992404;28;20105;-49
2023/12/06 09:40:55;;;;;;;2.70;1.90;;;19.90;99.90;;;;;;4992411;28;20122;-48
2023/12/06 09:43:21;;;;;;;3.15;2.03;;;20.00;99.90;;;;;;4992498;28;20034;-48
2023/12/06 09:45:48;;;;;;;2.75;1.95;;;20.00;99.90;;;;;;4992349;28;20026;-49
2023/12/06 09:48:14;;;;;;;4.80;2.55;;;19.90;99.90;;;;;;4992518;28;20018;-49
2023/12/06 09:50:40;;;;;;;4.13;2.65;;;19.90;99.90;;;;;;4992929;28;20555;-50
2023/12/06 09:53:06;;;;;;;3.38;2.15;;;19.90;99.90;;;;;;4995957;28;20117;-49
2023/12/06 09:55:35;;;;;;;2.67;1.85;;;20.00;99.90;;;;;;4995930;28;20383;-49
2023/12/06 09:58:01;;;;;;;3.45;2.03;;;20.00;99.90;;;;;;4995964;28;20011;-49
2023/12/06 10:00:27;;;;;;;3.50;1.92;;;20.00;99.90;;;;;;4995726;28;20487;-49
2023/12/06 10:02:54;;;;;;;4.80;2.83;;;20.00;99.90;;;;;;4995870;28;20038;-49
2023/12/06 10:05:21;;;;;;;3.17;2.17;;;20.00;99.90;;;;;;4995829;28;20022;-49
2023/12/06 10:07:47;;;;;;;3.05;2.53;;;20.00;99.90;;;;;;4995651;28;20041;-49
2023/12/06 10:10:15;;;;;;;3.20;2.35;;;20.00;99.90;;;;;;4995988;28;20050;-49
2023/12/06 10:12:52;;;;;;;2.72;2.00;;;20.00;99.90;;;;;;4995759;28;20030;-50
2023/12/06 10:15:18;;;;;;;;;;;20.00;99.90;;;;;;4996138;28;20030;-49
2023/12/06 10:17:45;;;;;;;4.03;2.20;;;20.00;99.90;;;;;;4995624;28;19905;-50
2023/12/06 10:20:10;;;;;;;2.03;1.60;;;20.00;99.90;;;;;;4995578;28;20475;-49
2023/12/06 10:22:36;;;;;;;4.22;2.28;;;20.00;99.90;;;;;;4995468;28;20038;-49
2023/12/06 10:25:06;;;;;;;3.35;2.05;;;20.00;99.90;;;;;;4995386;28;20046;-49
2023/12/06 10:27:32;;;;;;;3.30;1.70;;;20.00;99.90;;;;;;4995330;28;20101;-49
2023/12/06 10:29:59;;;;;;;4.63;2.40;;;20.00;99.90;;;;;;4995326;28;20026;-49
2023/12/06 10:32:26;;;;;;;3.65;2.30;;;20.00;99.90;;;;;;4994178;28;20038;-50
2023/12/06 10:34:54;;;;;;;2.88;2.15;;;20.00;99.90;;;;;;4995337;28;20088;-49
2023/12/06 10:37:21;;;;;;;3.50;2.03;;;20.00;99.90;;;;;;4995339;28;20115;-49
2023/12/06 10:39:54;;;;;;;3.75;2.00;;;20.00;99.90;;;;;;4995193;28;20022;-49
2023/12/06 10:42:27;;;;;;;5.05;2.97;;;20.00;99.90;;;;;;4995142;28;20030;-50
2023/12/06 10:44:55;;;;;;;4.47;2.58;;;20.00;99.90;;;;;;4995164;28;20030;-49
2023/12/06 10:47:21;;;;;;;4.55;2.47;;;20.00;99.90;;;;;;4994854;28;20019;-49
2023/12/06 10:49:49;;;;;;;3.13;2.13;;;20.00;99.90;;;;;;4994929;28;20049;-49
2023/12/06 10:52:17;;;;;;;3.63;2.50;;;20.10;99.90;;;;;;4995030;28;20026;-49
2023/12/06 10:54:43;;;;;;;;;;;20.10;99.90;;;;;;4995700;28;20022;-49
2023/12/06 10:57:08;;;;;;;2.00;1.77;;;20.00;99.90;;;;;;4994834;28;19912;-50
2023/12/06 10:59:37;;;;;;;3.92;2.08;;;20.10;99.90;;;;;;4993508;28;20034;-50
2023/12/06 11:02:03;;;;;;;3.80;1.95;;;20.10;99.90;;;;;;4994430;28;20435;-50
2023/12/06 11:04:36;;;;;;;3.83;2.20;;;20.00;99.90;;;;;;4994829;28;20073;-49
2023/12/06 11:07:26;;;;;;;4.00;2.10;;;20.10;99.90;;;;;;4994661;28;20352;-49
2023/12/06 11:10:17;;;;;;;5.45;2.58;;;20.10;99.90;;;;;;4994756;28;20384;-49
2023/12/06 11:13:01;;;;;;;4.80;2.30;;;20.10;99.90;;;;;;4994588;28;20093;-49
2023/12/06 11:15:53;;;;;;;3.55;1.95;;;20.10;99.90;;;;;;4994452;28;20049;-50
2023/12/06 11:18:23;;;;;;;3.60;2.30;;;20.10;99.90;;;;;;4993247;28;20024;-49
2023/12/06 11:20:49;;;;;;;3.97;2.40;;;20.10;99.90;;;;;;4994408;28;20130;-49
2023/12/06 11:23:17;;;;;;;8.48;2.03;;;20.10;99.90;;;;;;4994528;28;20076;-50
2023/12/06 11:25:45;;;;;;;3.53;2.30;;;20.10;99.90;;;;;;4994432;28;20489;-50
2023/12/06 11:28:14;;;;;;;;;;;20.10;99.90;;;;;;4994743;28;20022;-50
2023/12/06 11:30:55;;;;;;;5.22;2.30;;;20.10;99.90;;;;;;4994295;28;19912;-50
2023/12/06 11:33:21;;;;;;;6.03;2.38;;;20.10;99.90;;;;;;4993929;28;20042;-49
2023/12/06 11:36:16;;;;;;;6.30;3.05;;;20.10;99.90;;;;;;4994349;28;20168;-50
2023/12/06 11:38:45;;;;;;;4.55;3.05;;;20.10;99.90;;;;;;4994147;28;20026;-50
2023/12/06 11:41:17;;;;;;;4.97;2.50;;;20.10;99.90;;;;;;4993947;28;20493;-50
2023/12/06 11:43:51;;;;;;;5.65;2.78;;;20.10;99.90;;;;;;4993851;28;20093;-50
2023/12/06 11:46:18;;;;;;;6.03;3.20;;;20.10;99.90;;;;;;4994299;28;20026;-49
2023/12/06 11:48:52;;;;;;;6.70;2.65;;;20.10;99.90;;;;;;4993942;28;20034;-50
2023/12/06 11:51:24;;;;;;;4.73;2.43;;;20.10;99.90;;;;;;4994032;28;20026;-49
2023/12/06 11:53:51;;;;;;;5.30;2.75;;;20.10;99.90;;;;;;4993784;28;20030;-49
2023/12/06 11:56:21;;;;;;;4.35;2.65;;;20.10;99.90;;;;;;4993832;28;20065;-49
2023/12/06 11:58:48;;;;;;;5.75;2.75;;;20.10;99.90;;;;;;4993823;28;20022;-50
2023/12/06 12:01:14;;;;;;;7.07;2.83;;;20.10;99.90;;;;;;4993435;28;20112;-49
2023/12/06 12:03:40;;;;;;;5.80;2.30;;;20.20;99.90;;;;;;4992178;28;20032;-50
2023/12/06 12:06:08;;;;;;;4.15;2.67;;;20.10;99.90;;;;;;4993416;28;20026;-49
2023/12/06 12:08:34;;;;;;;6.00;2.70;;;20.20;99.90;;;;;;4993415;28;20479;-49
2023/12/06 12:11:00;;;;;;;4.38;2.72;;;20.20;99.90;;;;;;4993551;28;20034;-50
2023/12/06 12:13:26;;;;;;;3.88;2.47;;;20.20;99.90;;;;;;4991534;28;20042;-49
2023/12/06 12:16:01;;;;;;;5.40;3.00;;;20.20;99.90;;;;;;4993685;28;20030;-49
2023/12/06 12:18:28;;;;;;;7.32;2.50;;;20.20;99.90;;;;;;4993334;28;20101;-50
2023/12/06 12:20:59;;;;;;;6.27;3.73;;;20.20;99.90;;;;;;4993357;28;20014;-49
2023/12/06 12:23:26;;;;;;;2.95;2.35;;;20.20;99.90;;;;;;4993269;28;20026;-50
2023/12/06 12:25:52;;;;;;;6.13;3.00;;;20.20;99.90;;;;;;4993415;28;20471;-50
2023/12/06 12:28:20;;;;;;;3.58;2.42;;;20.20;99.90;;;;;;4993184;28;20030;-50
2023/12/06 12:30:46;;;;;;;4.45;2.78;;;20.20;99.90;;;;;;4993096;28;20026;-49
2023/12/06 12:33:15;;;;;;;4.53;2.90;;;20.20;99.90;;;;;;4993107;28;20512;-49
2023/12/06 12:35:42;;;;;;;3.97;2.70;;;20.20;99.90;;;;;;4993052;28;20109;-49
2023/12/06 12:38:09;;;;;;;4.13;2.42;;;20.20;99.90;;;;;;4991916;28;20561;-50
2023/12/06 12:40:35;;;;;;;4.28;2.92;;;20.20;99.90;;;;;;4992930;28;20043;-50
2023/12/06 12:43:00;;;;;;;5.47;2.75;;;20.20;99.90;;;;;;4993017;28;20037;-50
2023/12/06 12:45:26;;;;;;;3.95;2.55;;;20.20;99.90;;;;;;4992938;28;20094;-50